sensor_id;sensor_type;location;lat;lon;timestamp;P1;durP1;ratioP1;P2;durP2;ratioP2
47856;SDS011;33618;49.972;8.242;2023-07-31T00:02:26;3.10;;;1.50;;
47856;SDS011;33618;49.972;8.242;2023-07-31T00:04:54;3.28;;;1.60;;
47856;SDS011;33618;49.972;8.242;2023-07-31T00:07:20;4.63;;;1.75;;
47856;SDS011;33618;49.972;8.242;2023-07-31T00:09:47;4.75;;;1.77;;
47856;SDS011;33618;49.972;8.242;2023-07-31T00:12:14;5.63;;;1.65;;
47856;SDS011;33618;49.972;8.242;2023-07-31T00:14:41;4.13;;;1.65;;
47856;SDS011;33618;49.972;8.242;2023-07-31T00:17:08;3.00;;;1.50;;
47856;SDS011;33618;49.972;8.242;2023-07-31T00:19:35;4.28;;;1.60;;
47856;SDS011;33618;49.972;8.242;2023-07-31T00:22:01;3.35;;;1.38;;
47856;SDS011;33618;49.972;8.242;2023-07-31T00:35:45;5.72;;;1.55;;
47856;SDS011;33618;49.972;8.242;2023-07-31T00:38:29;4.45;;;1.70;;
47856;SDS011;33618;49.972;8.242;2023-07-31T00:40:56;2.42;;;1.50;;
47856;SDS011;33618;49.972;8.242;2023-07-31T00:43:24;3.22;;;1.60;;
47856;SDS011;33618;49.972;8.242;2023-07-31T00:45:51;2.95;;;1.60;;
47856;SDS011;33618;49.972;8.242;2023-07-31T00:48:18;5.57;;;1.80;;
47856;SDS011;33618;49.972;8.242;2023-07-31T00:50:45;3.03;;;1.67;;
47856;SDS011;33618;49.972;8.242;2023-07-31T00:53:12;3.55;;;1.60;;
47856;SDS011;33618;49.972;8.242;2023-07-31T00:55:39;5.00;;;1.50;;
47856;SDS011;33618;49.972;8.242;2023-07-31T00:58:06;4.43;;;1.50;;
47856;SDS011;33618;49.972;8.242;2023-07-31T01:00:33;5.63;;;1.55;;
47856;SDS011;33618;49.972;8.242;2023-07-31T01:03:00;6.22;;;1.80;;
47856;SDS011;33618;49.972;8.242;2023-07-31T01:05:32;4.70;;;1.70;;
47856;SDS011;33618;49.972;8.242;2023-07-31T01:08:09;4.28;;;1.75;;
47856;SDS011;33618;49.972;8.242;2023-07-31T01:10:54;3.78;;;1.95;;
47856;SDS011;33618;49.972;8.242;2023-07-31T01:13:26;4.60;;;2.08;;
47856;SDS011;33618;49.972;8.242;2023-07-31T01:15:54;7.20;;;1.98;;
47856;SDS011;33618;49.972;8.242;2023-07-31T01:18:21;4.18;;;1.67;;
47856;SDS011;33618;49.972;8.242;2023-07-31T01:20:51;3.67;;;1.80;;
47856;SDS011;33618;49.972;8.242;2023-07-31T01:23:38;4.32;;;1.77;;
47856;SDS011;33618;49.972;8.242;2023-07-31T01:26:17;3.13;;;1.67;;
47856;SDS011;33618;49.972;8.242;2023-07-31T01:28:53;4.18;;;1.70;;
47856;SDS011;33618;49.972;8.242;2023-07-31T01:31:27;2.25;;;1.52;;
47856;SDS011;33618;49.972;8.242;2023-07-31T01:33:57;5.05;;;1.88;;
47856;SDS011;33618;49.972;8.242;2023-07-31T01:36:28;2.97;;;2.00;;
47856;SDS011;33618;49.972;8.242;2023-07-31T01:38:57;3.10;;;1.90;;
47856;SDS011;33618;49.972;8.242;2023-07-31T01:41:26;4.57;;;1.70;;
47856;SDS011;33618;49.972;8.242;2023-07-31T01:43:53;3.78;;;1.63;;
47856;SDS011;33618;49.972;8.242;2023-07-31T01:46:19;3.58;;;1.70;;
47856;SDS011;33618;49.972;8.242;2023-07-31T01:48:46;2.90;;;1.60;;
47856;SDS011;33618;49.972;8.242;2023-07-31T01:51:13;2.83;;;1.80;;
47856;SDS011;33618;49.972;8.242;2023-07-31T01:53:40;3.03;;;1.80;;
47856;SDS011;33618;49.972;8.242;2023-07-31T01:56:07;8.75;;;2.15;;
47856;SDS011;33618;49.972;8.242;2023-07-31T01:58:33;6.88;;;2.13;;
47856;SDS011;33618;49.972;8.242;2023-07-31T02:01:00;2.55;;;1.75;;
47856;SDS011;33618;49.972;8.242;2023-07-31T02:03:27;2.97;;;1.90;;
47856;SDS011;33618;49.972;8.242;2023-07-31T02:05:54;3.00;;;1.80;;
47856;SDS011;33618;49.972;8.242;2023-07-31T02:08:21;4.05;;;2.08;;
47856;SDS011;33618;49.972;8.242;2023-07-31T02:10:48;2.58;;;1.80;;
47856;SDS011;33618;49.972;8.242;2023-07-31T02:13:15;7.60;;;1.65;;
47856;SDS011;33618;49.972;8.242;2023-07-31T02:15:42;5.05;;;1.88;;
47856;SDS011;33618;49.972;8.242;2023-07-31T02:18:08;5.75;;;2.15;;
47856;SDS011;33618;49.972;8.242;2023-07-31T02:20:35;3.45;;;1.70;;
47856;SDS011;33618;49.972;8.242;2023-07-31T02:23:02;6.35;;;2.10;;
47856;SDS011;33618;49.972;8.242;2023-07-31T02:25:29;3.70;;;1.92;;
47856;SDS011;33618;49.972;8.242;2023-07-31T02:27:56;2.72;;;1.88;;
47856;SDS011;33618;49.972;8.242;2023-07-31T02:30:23;3.13;;;1.80;;
47856;SDS011;33618;49.972;8.242;2023-07-31T02:32:49;4.28;;;1.73;;
47856;SDS011;33618;49.972;8.242;2023-07-31T02:35:16;4.95;;;2.30;;
47856;SDS011;33618;49.972;8.242;2023-07-31T02:37:44;4.60;;;1.98;;
47856;SDS011;33618;49.972;8.242;2023-07-31T02:40:11;5.60;;;2.00;;
47856;SDS011;33618;49.972;8.242;2023-07-31T02:42:38;7.63;;;2.17;;
47856;SDS011;33618;49.972;8.242;2023-07-31T02:45:05;7.88;;;2.40;;
47856;SDS011;33618;49.972;8.242;2023-07-31T02:47:33;6.38;;;2.20;;
47856;SDS011;33618;49.972;8.242;2023-07-31T02:50:00;4.38;;;1.90;;
47856;SDS011;33618;49.972;8.242;2023-07-31T02:52:27;4.07;;;2.42;;
47856;SDS011;33618;49.972;8.242;2023-07-31T02:54:54;4.15;;;2.20;;
47856;SDS011;33618;49.972;8.242;2023-07-31T02:57:21;4.18;;;2.05;;
47856;SDS011;33618;49.972;8.242;2023-07-31T02:59:48;4.18;;;1.80;;
47856;SDS011;33618;49.972;8.242;2023-07-31T03:02:15;5.20;;;2.20;;
47856;SDS011;33618;49.972;8.242;2023-07-31T03:04:42;6.60;;;1.98;;
47856;SDS011;33618;49.972;8.242;2023-07-31T03:07:09;5.82;;;2.05;;
47856;SDS011;33618;49.972;8.242;2023-07-31T03:09:35;5.80;;;2.33;;
47856;SDS011;33618;49.972;8.242;2023-07-31T03:12:02;5.95;;;2.20;;
47856;SDS011;33618;49.972;8.242;2023-07-31T03:14:29;4.50;;;2.00;;
47856;SDS011;33618;49.972;8.242;2023-07-31T03:16:56;2.63;;;2.00;;
47856;SDS011;33618;49.972;8.242;2023-07-31T03:19:23;6.05;;;2.08;;
47856;SDS011;33618;49.972;8.242;2023-07-31T03:21:50;4.28;;;1.90;;
47856;SDS011;33618;49.972;8.242;2023-07-31T03:24:17;4.53;;;2.20;;
47856;SDS011;33618;49.972;8.242;2023-07-31T03:26:44;4.82;;;2.00;;
47856;SDS011;33618;49.972;8.242;2023-07-31T03:29:10;6.03;;;2.35;;
47856;SDS011;33618;49.972;8.242;2023-07-31T03:31:37;5.32;;;2.28;;
47856;SDS011;33618;49.972;8.242;2023-07-31T03:34:04;8.32;;;2.40;;
47856;SDS011;33618;49.972;8.242;2023-07-31T03:36:31;4.35;;;2.00;;
47856;SDS011;33618;49.972;8.242;2023-07-31T03:38:58;4.38;;;2.25;;
47856;SDS011;33618;49.972;8.242;2023-07-31T03:41:25;5.07;;;2.20;;
47856;SDS011;33618;49.972;8.242;2023-07-31T03:43:51;6.07;;;2.15;;
47856;SDS011;33618;49.972;8.242;2023-07-31T03:46:18;3.85;;;2.30;;
47856;SDS011;33618;49.972;8.242;2023-07-31T03:48:45;3.85;;;2.15;;
47856;SDS011;33618;49.972;8.242;2023-07-31T03:51:12;3.08;;;2.10;;
47856;SDS011;33618;49.972;8.242;2023-07-31T03:53:39;4.43;;;2.20;;
47856;SDS011;33618;49.972;8.242;2023-07-31T03:56:06;3.83;;;2.45;;
47856;SDS011;33618;49.972;8.242;2023-07-31T03:58:33;4.55;;;2.15;;
47856;SDS011;33618;49.972;8.242;2023-07-31T04:01:01;7.85;;;2.78;;
47856;SDS011;33618;49.972;8.242;2023-07-31T04:03:28;6.53;;;2.30;;
47856;SDS011;33618;49.972;8.242;2023-07-31T04:05:55;5.13;;;2.38;;
47856;SDS011;33618;49.972;8.242;2023-07-31T04:08:22;4.80;;;2.45;;
47856;SDS011;33618;49.972;8.242;2023-07-31T04:10:49;4.78;;;2.10;;
47856;SDS011;33618;49.972;8.242;2023-07-31T04:13:16;5.72;;;2.15;;
47856;SDS011;33618;49.972;8.242;2023-07-31T04:15:47;4.53;;;2.50;;
47856;SDS011;33618;49.972;8.242;2023-07-31T04:18:17;4.32;;;2.25;;
47856;SDS011;33618;49.972;8.242;2023-07-31T04:20:44;6.55;;;2.30;;
47856;SDS011;33618;49.972;8.242;2023-07-31T04:23:11;5.97;;;2.33;;
47856;SDS011;33618;49.972;8.242;2023-07-31T04:25:38;5.28;;;2.22;;
47856;SDS011;33618;49.972;8.242;2023-07-31T04:28:05;5.30;;;2.35;;
47856;SDS011;33618;49.972;8.242;2023-07-31T04:30:32;5.85;;;2.50;;
47856;SDS011;33618;49.972;8.242;2023-07-31T04:32:59;3.60;;;2.40;;
47856;SDS011;33618;49.972;8.242;2023-07-31T04:35:26;4.28;;;2.10;;
47856;SDS011;33618;49.972;8.242;2023-07-31T04:37:53;5.93;;;2.60;;
47856;SDS011;33618;49.972;8.242;2023-07-31T04:40:20;5.25;;;2.45;;
47856;SDS011;33618;49.972;8.242;2023-07-31T04:42:48;6.50;;;2.40;;
47856;SDS011;33618;49.972;8.242;2023-07-31T04:45:14;8.23;;;2.45;;
47856;SDS011;33618;49.972;8.242;2023-07-31T05:07:54;8.80;;;2.38;;
47856;SDS011;33618;49.972;8.242;2023-07-31T05:10:21;3.58;;;2.47;;
47856;SDS011;33618;49.972;8.242;2023-07-31T05:12:48;7.85;;;2.50;;
47856;SDS011;33618;49.972;8.242;2023-07-31T05:15:15;6.75;;;2.63;;
47856;SDS011;33618;49.972;8.242;2023-07-31T05:17:42;4.38;;;2.33;;
47856;SDS011;33618;49.972;8.242;2023-07-31T05:20:09;4.85;;;2.10;;
47856;SDS011;33618;49.972;8.242;2023-07-31T05:22:37;7.97;;;2.72;;
47856;SDS011;33618;49.972;8.242;2023-07-31T05:25:04;4.70;;;2.20;;
47856;SDS011;33618;49.972;8.242;2023-07-31T05:27:31;5.55;;;2.60;;
47856;SDS011;33618;49.972;8.242;2023-07-31T05:29:58;4.07;;;2.50;;
47856;SDS011;33618;49.972;8.242;2023-07-31T05:32:25;7.38;;;2.40;;
47856;SDS011;33618;49.972;8.242;2023-07-31T05:34:52;6.95;;;2.60;;
47856;SDS011;33618;49.972;8.242;2023-07-31T05:37:19;5.65;;;2.22;;
47856;SDS011;33618;49.972;8.242;2023-07-31T05:39:46;5.88;;;2.42;;
47856;SDS011;33618;49.972;8.242;2023-07-31T05:42:13;6.65;;;2.42;;
47856;SDS011;33618;49.972;8.242;2023-07-31T05:44:40;4.85;;;2.13;;
47856;SDS011;33618;49.972;8.242;2023-07-31T05:47:07;5.03;;;2.35;;
47856;SDS011;33618;49.972;8.242;2023-07-31T05:49:34;4.88;;;2.30;;
47856;SDS011;33618;49.972;8.242;2023-07-31T05:52:01;4.18;;;2.40;;
47856;SDS011;33618;49.972;8.242;2023-07-31T05:54:28;4.72;;;2.53;;
47856;SDS011;33618;49.972;8.242;2023-07-31T05:56:55;2.85;;;2.00;;
47856;SDS011;33618;49.972;8.242;2023-07-31T05:59:21;5.47;;;2.50;;
47856;SDS011;33618;49.972;8.242;2023-07-31T06:01:48;9.32;;;2.55;;
47856;SDS011;33618;49.972;8.242;2023-07-31T06:04:15;5.30;;;2.40;;
47856;SDS011;33618;49.972;8.242;2023-07-31T06:06:42;4.13;;;2.22;;
47856;SDS011;33618;49.972;8.242;2023-07-31T06:09:09;4.13;;;2.40;;
47856;SDS011;33618;49.972;8.242;2023-07-31T06:11:36;3.88;;;2.55;;
47856;SDS011;33618;49.972;8.242;2023-07-31T06:14:03;4.03;;;2.20;;
47856;SDS011;33618;49.972;8.242;2023-07-31T06:16:30;6.13;;;2.42;;
47856;SDS011;33618;49.972;8.242;2023-07-31T06:18:57;7.32;;;2.25;;
47856;SDS011;33618;49.972;8.242;2023-07-31T06:21:24;6.80;;;2.55;;
47856;SDS011;33618;49.972;8.242;2023-07-31T06:23:51;7.25;;;2.45;;
47856;SDS011;33618;49.972;8.242;2023-07-31T06:26:18;4.78;;;2.35;;
47856;SDS011;33618;49.972;8.242;2023-07-31T06:28:44;4.90;;;2.40;;
47856;SDS011;33618;49.972;8.242;2023-07-31T06:31:11;4.55;;;2.33;;
47856;SDS011;33618;49.972;8.242;2023-07-31T06:33:38;8.77;;;2.33;;
47856;SDS011;33618;49.972;8.242;2023-07-31T06:36:05;6.75;;;2.85;;
47856;SDS011;33618;49.972;8.242;2023-07-31T06:38:32;4.15;;;2.30;;
47856;SDS011;33618;49.972;8.242;2023-07-31T06:40:59;6.22;;;2.20;;
47856;SDS011;33618;49.972;8.242;2023-07-31T06:43:26;5.75;;;2.40;;
47856;SDS011;33618;49.972;8.242;2023-07-31T06:45:55;3.90;;;2.28;;
47856;SDS011;33618;49.972;8.242;2023-07-31T06:48:21;4.43;;;2.40;;
47856;SDS011;33618;49.972;8.242;2023-07-31T06:50:48;4.95;;;2.55;;
47856;SDS011;33618;49.972;8.242;2023-07-31T06:53:15;3.47;;;2.13;;
47856;SDS011;33618;49.972;8.242;2023-07-31T06:55:42;5.70;;;2.60;;
47856;SDS011;33618;49.972;8.242;2023-07-31T06:58:09;4.20;;;2.60;;
47856;SDS011;33618;49.972;8.242;2023-07-31T07:00:35;4.07;;;2.20;;
47856;SDS011;33618;49.972;8.242;2023-07-31T07:03:02;6.00;;;2.45;;
47856;SDS011;33618;49.972;8.242;2023-07-31T07:05:29;4.93;;;2.13;;
47856;SDS011;33618;49.972;8.242;2023-07-31T07:07:56;4.88;;;2.50;;
47856;SDS011;33618;49.972;8.242;2023-07-31T07:10:23;5.32;;;2.47;;
47856;SDS011;33618;49.972;8.242;2023-07-31T07:12:50;4.88;;;2.40;;
47856;SDS011;33618;49.972;8.242;2023-07-31T07:15:17;4.22;;;2.22;;
47856;SDS011;33618;49.972;8.242;2023-07-31T07:17:44;3.88;;;2.10;;
47856;SDS011;33618;49.972;8.242;2023-07-31T07:20:11;3.38;;;2.33;;
47856;SDS011;33618;49.972;8.242;2023-07-31T07:22:37;4.03;;;2.10;;
47856;SDS011;33618;49.972;8.242;2023-07-31T07:25:04;6.90;;;2.50;;
47856;SDS011;33618;49.972;8.242;2023-07-31T07:27:33;6.72;;;2.40;;
47856;SDS011;33618;49.972;8.242;2023-07-31T07:30:00;3.58;;;2.30;;
47856;SDS011;33618;49.972;8.242;2023-07-31T07:32:27;4.05;;;2.20;;
47856;SDS011;33618;49.972;8.242;2023-07-31T07:34:55;5.45;;;2.42;;
47856;SDS011;33618;49.972;8.242;2023-07-31T07:37:22;5.97;;;2.47;;
47856;SDS011;33618;49.972;8.242;2023-07-31T07:39:49;3.85;;;2.25;;
47856;SDS011;33618;49.972;8.242;2023-07-31T07:42:15;5.82;;;2.45;;
47856;SDS011;33618;49.972;8.242;2023-07-31T07:44:42;5.97;;;2.40;;
47856;SDS011;33618;49.972;8.242;2023-07-31T07:47:09;3.35;;;2.10;;
47856;SDS011;33618;49.972;8.242;2023-07-31T07:49:36;5.57;;;2.35;;
47856;SDS011;33618;49.972;8.242;2023-07-31T07:52:03;6.75;;;2.60;;
47856;SDS011;33618;49.972;8.242;2023-07-31T07:54:30;5.10;;;2.45;;
47856;SDS011;33618;49.972;8.242;2023-07-31T07:56:57;7.05;;;2.28;;
47856;SDS011;33618;49.972;8.242;2023-07-31T07:59:25;6.18;;;2.03;;
47856;SDS011;33618;49.972;8.242;2023-07-31T08:01:52;5.75;;;2.38;;
47856;SDS011;33618;49.972;8.242;2023-07-31T08:04:19;5.07;;;2.60;;
47856;SDS011;33618;49.972;8.242;2023-07-31T08:06:46;8.10;;;2.33;;
47856;SDS011;33618;49.972;8.242;2023-07-31T08:09:13;3.85;;;2.30;;
47856;SDS011;33618;49.972;8.242;2023-07-31T08:11:40;4.13;;;2.38;;
47856;SDS011;33618;49.972;8.242;2023-07-31T08:14:07;6.25;;;2.28;;
47856;SDS011;33618;49.972;8.242;2023-07-31T08:16:34;2.88;;;2.20;;
47856;SDS011;33618;49.972;8.242;2023-07-31T08:19:01;4.07;;;2.17;;
47856;SDS011;33618;49.972;8.242;2023-07-31T08:21:28;4.32;;;2.13;;
47856;SDS011;33618;49.972;8.242;2023-07-31T08:23:55;2.72;;;1.88;;
47856;SDS011;33618;49.972;8.242;2023-07-31T08:26:22;5.47;;;3.08;;
47856;SDS011;33618;49.972;8.242;2023-07-31T08:28:48;6.60;;;2.25;;
47856;SDS011;33618;49.972;8.242;2023-07-31T08:31:15;4.63;;;2.13;;
47856;SDS011;33618;49.972;8.242;2023-07-31T08:33:42;5.20;;;2.50;;
47856;SDS011;33618;49.972;8.242;2023-07-31T08:36:09;3.95;;;2.17;;
47856;SDS011;33618;49.972;8.242;2023-07-31T08:38:36;5.53;;;2.28;;
47856;SDS011;33618;49.972;8.242;2023-07-31T08:41:03;4.35;;;2.38;;
47856;SDS011;33618;49.972;8.242;2023-07-31T08:43:31;6.18;;;2.38;;
47856;SDS011;33618;49.972;8.242;2023-07-31T09:07:26;4.78;;;2.30;;
47856;SDS011;33618;49.972;8.242;2023-07-31T09:09:53;4.35;;;2.15;;
47856;SDS011;33618;49.972;8.242;2023-07-31T09:12:20;4.10;;;2.42;;
47856;SDS011;33618;49.972;8.242;2023-07-31T09:14:47;6.47;;;2.58;;
47856;SDS011;33618;49.972;8.242;2023-07-31T09:17:14;3.30;;;2.20;;
47856;SDS011;33618;49.972;8.242;2023-07-31T09:19:41;4.97;;;2.05;;
47856;SDS011;33618;49.972;8.242;2023-07-31T09:22:08;3.83;;;2.30;;
47856;SDS011;33618;49.972;8.242;2023-07-31T09:24:35;3.13;;;2.13;;
47856;SDS011;33618;49.972;8.242;2023-07-31T09:27:02;5.28;;;2.50;;
47856;SDS011;33618;49.972;8.242;2023-07-31T09:29:29;3.05;;;2.03;;
47856;SDS011;33618;49.972;8.242;2023-07-31T09:31:56;4.82;;;2.40;;
47856;SDS011;33618;49.972;8.242;2023-07-31T09:34:28;7.65;;;2.58;;
47856;SDS011;33618;49.972;8.242;2023-07-31T09:36:57;7.57;;;2.40;;
47856;SDS011;33618;49.972;8.242;2023-07-31T09:39:27;3.72;;;2.45;;
47856;SDS011;33618;49.972;8.242;2023-07-31T09:41:56;4.38;;;2.10;;
47856;SDS011;33618;49.972;8.242;2023-07-31T09:44:39;2.38;;;2.17;;
47856;SDS011;33618;49.972;8.242;2023-07-31T09:47:20;4.57;;;2.35;;
47856;SDS011;33618;49.972;8.242;2023-07-31T09:49:52;5.22;;;1.92;;
47856;SDS011;33618;49.972;8.242;2023-07-31T09:52:19;4.22;;;2.95;;
47856;SDS011;33618;49.972;8.242;2023-07-31T09:54:46;3.92;;;2.42;;
47856;SDS011;33618;49.972;8.242;2023-07-31T09:57:13;4.72;;;2.20;;
47856;SDS011;33618;49.972;8.242;2023-07-31T09:59:43;6.38;;;2.30;;
47856;SDS011;33618;49.972;8.242;2023-07-31T10:02:13;3.45;;;2.25;;
47856;SDS011;33618;49.972;8.242;2023-07-31T10:04:43;5.28;;;2.60;;
47856;SDS011;33618;49.972;8.242;2023-07-31T10:07:12;4.50;;;2.17;;
47856;SDS011;33618;49.972;8.242;2023-07-31T10:09:40;4.90;;;2.50;;
47856;SDS011;33618;49.972;8.242;2023-07-31T10:12:08;3.90;;;2.63;;
47856;SDS011;33618;49.972;8.242;2023-07-31T10:14:38;6.20;;;2.22;;
47856;SDS011;33618;49.972;8.242;2023-07-31T10:17:07;5.43;;;2.28;;
47856;SDS011;33618;49.972;8.242;2023-07-31T10:19:35;4.20;;;2.17;;
47856;SDS011;33618;49.972;8.242;2023-07-31T10:22:03;6.28;;;2.63;;
47856;SDS011;33618;49.972;8.242;2023-07-31T10:24:30;6.55;;;2.42;;
47856;SDS011;33618;49.972;8.242;2023-07-31T10:26:58;3.53;;;2.35;;
47856;SDS011;33618;49.972;8.242;2023-07-31T10:29:27;4.43;;;2.50;;
47856;SDS011;33618;49.972;8.242;2023-07-31T10:31:57;3.15;;;2.63;;
47856;SDS011;33618;49.972;8.242;2023-07-31T10:34:25;6.93;;;2.65;;
47856;SDS011;33618;49.972;8.242;2023-07-31T10:42:30;7.15;;;2.50;;
47856;SDS011;33618;49.972;8.242;2023-07-31T10:45:08;4.90;;;2.90;;
47856;SDS011;33618;49.972;8.242;2023-07-31T10:47:45;5.38;;;2.53;;
47856;SDS011;33618;49.972;8.242;2023-07-31T10:50:13;7.50;;;2.50;;
47856;SDS011;33618;49.972;8.242;2023-07-31T10:52:47;3.70;;;2.20;;
47856;SDS011;33618;49.972;8.242;2023-07-31T10:57:48;4.32;;;2.10;;
47856;SDS011;33618;49.972;8.242;2023-07-31T11:08:28;2.85;;;2.00;;
47856;SDS011;33618;49.972;8.242;2023-07-31T11:13:33;5.65;;;2.72;;
47856;SDS011;33618;49.972;8.242;2023-07-31T11:16:00;5.25;;;2.50;;
47856;SDS011;33618;49.972;8.242;2023-07-31T11:18:27;3.05;;;2.50;;
47856;SDS011;33618;49.972;8.242;2023-07-31T11:20:54;3.13;;;2.33;;
47856;SDS011;33618;49.972;8.242;2023-07-31T11:23:21;5.88;;;2.42;;
47856;SDS011;33618;49.972;8.242;2023-07-31T11:25:49;3.97;;;2.15;;
47856;SDS011;33618;49.972;8.242;2023-07-31T11:28:17;3.58;;;2.63;;
47856;SDS011;33618;49.972;8.242;2023-07-31T11:30:45;6.78;;;2.42;;
47856;SDS011;33618;49.972;8.242;2023-07-31T11:33:13;4.63;;;2.50;;
47856;SDS011;33618;49.972;8.242;2023-07-31T11:35:47;2.83;;;2.33;;
47856;SDS011;33618;49.972;8.242;2023-07-31T11:38:34;5.20;;;2.00;;
47856;SDS011;33618;49.972;8.242;2023-07-31T11:41:02;5.47;;;2.40;;
47856;SDS011;33618;49.972;8.242;2023-07-31T11:43:33;4.18;;;2.50;;
47856;SDS011;33618;49.972;8.242;2023-07-31T11:46:02;6.03;;;2.25;;
47856;SDS011;33618;49.972;8.242;2023-07-31T11:48:33;3.33;;;2.35;;
47856;SDS011;33618;49.972;8.242;2023-07-31T11:51:07;6.75;;;2.15;;
47856;SDS011;33618;49.972;8.242;2023-07-31T11:56:18;4.97;;;2.63;;
47856;SDS011;33618;49.972;8.242;2023-07-31T11:58:49;4.03;;;2.45;;
47856;SDS011;33618;49.972;8.242;2023-07-31T12:01:20;3.53;;;2.17;;
47856;SDS011;33618;49.972;8.242;2023-07-31T12:03:49;3.03;;;2.15;;
47856;SDS011;33618;49.972;8.242;2023-07-31T12:06:17;5.13;;;2.30;;
47856;SDS011;33618;49.972;8.242;2023-07-31T12:08:47;2.75;;;2.10;;
47856;SDS011;33618;49.972;8.242;2023-07-31T12:11:15;3.47;;;2.25;;
47856;SDS011;33618;49.972;8.242;2023-07-31T12:13:44;2.60;;;2.10;;
47856;SDS011;33618;49.972;8.242;2023-07-31T12:16:11;2.67;;;2.25;;
47856;SDS011;33618;49.972;8.242;2023-07-31T12:18:38;2.92;;;2.30;;
47856;SDS011;33618;49.972;8.242;2023-07-31T12:21:06;3.95;;;2.30;;
47856;SDS011;33618;49.972;8.242;2023-07-31T12:23:35;2.83;;;2.13;;
47856;SDS011;33618;49.972;8.242;2023-07-31T12:26:10;5.50;;;2.13;;
47856;SDS011;33618;49.972;8.242;2023-07-31T12:28:42;7.72;;;2.42;;
47856;SDS011;33618;49.972;8.242;2023-07-31T12:31:11;4.97;;;2.35;;
47856;SDS011;33618;49.972;8.242;2023-07-31T12:33:39;3.58;;;2.20;;
47856;SDS011;33618;49.972;8.242;2023-07-31T12:36:17;3.20;;;2.00;;
47856;SDS011;33618;49.972;8.242;2023-07-31T12:38:47;5.28;;;2.35;;
47856;SDS011;33618;49.972;8.242;2023-07-31T12:41:16;4.80;;;2.40;;
47856;SDS011;33618;49.972;8.242;2023-07-31T12:43:43;4.93;;;2.40;;
47856;SDS011;33618;49.972;8.242;2023-07-31T12:46:11;7.25;;;2.45;;
47856;SDS011;33618;49.972;8.242;2023-07-31T12:48:39;5.57;;;2.15;;
47856;SDS011;33618;49.972;8.242;2023-07-31T12:51:08;6.57;;;2.55;;
47856;SDS011;33618;49.972;8.242;2023-07-31T12:53:35;5.53;;;2.20;;
47856;SDS011;33618;49.972;8.242;2023-07-31T12:56:03;3.78;;;2.10;;
47856;SDS011;33618;49.972;8.242;2023-07-31T12:58:30;5.20;;;2.17;;
47856;SDS011;33618;49.972;8.242;2023-07-31T13:00:57;3.25;;;2.35;;
47856;SDS011;33618;49.972;8.242;2023-07-31T13:03:24;3.05;;;2.40;;
47856;SDS011;33618;49.972;8.242;2023-07-31T13:05:51;2.83;;;2.30;;
47856;SDS011;33618;49.972;8.242;2023-07-31T13:08:19;2.40;;;1.88;;
47856;SDS011;33618;49.972;8.242;2023-07-31T13:10:46;2.75;;;2.00;;
47856;SDS011;33618;49.972;8.242;2023-07-31T13:13:13;3.08;;;2.00;;
47856;SDS011;33618;49.972;8.242;2023-07-31T13:15:40;2.17;;;1.98;;
47856;SDS011;33618;49.972;8.242;2023-07-31T13:18:07;3.45;;;1.90;;
47856;SDS011;33618;49.972;8.242;2023-07-31T13:20:34;3.08;;;2.08;;
47856;SDS011;33618;49.972;8.242;2023-07-31T13:23:01;4.60;;;2.13;;
47856;SDS011;33618;49.972;8.242;2023-07-31T13:25:27;3.55;;;2.10;;
47856;SDS011;33618;49.972;8.242;2023-07-31T13:27:55;4.97;;;2.38;;
47856;SDS011;33618;49.972;8.242;2023-07-31T13:30:22;4.57;;;2.05;;
47856;SDS011;33618;49.972;8.242;2023-07-31T13:32:49;2.30;;;2.08;;
47856;SDS011;33618;49.972;8.242;2023-07-31T13:35:16;2.50;;;1.92;;
47856;SDS011;33618;49.972;8.242;2023-07-31T13:37:43;4.70;;;2.10;;
47856;SDS011;33618;49.972;8.242;2023-07-31T13:40:10;6.38;;;2.20;;
47856;SDS011;33618;49.972;8.242;2023-07-31T13:42:37;4.13;;;2.20;;
47856;SDS011;33618;49.972;8.242;2023-07-31T13:45:04;2.38;;;2.10;;
47856;SDS011;33618;49.972;8.242;2023-07-31T13:47:33;2.58;;;2.10;;
47856;SDS011;33618;49.972;8.242;2023-07-31T13:50:01;2.97;;;2.13;;
47856;SDS011;33618;49.972;8.242;2023-07-31T13:52:28;7.88;;;2.28;;
47856;SDS011;33618;49.972;8.242;2023-07-31T13:54:55;4.97;;;3.53;;
47856;SDS011;33618;49.972;8.242;2023-07-31T13:57:21;3.45;;;2.47;;
47856;SDS011;33618;49.972;8.242;2023-07-31T13:59:50;3.10;;;2.22;;
47856;SDS011;33618;49.972;8.242;2023-07-31T14:02:17;2.92;;;2.28;;
47856;SDS011;33618;49.972;8.242;2023-07-31T14:04:44;3.88;;;2.45;;
47856;SDS011;33618;49.972;8.242;2023-07-31T14:07:11;2.40;;;2.15;;
47856;SDS011;33618;49.972;8.242;2023-07-31T14:09:38;4.35;;;2.40;;
47856;SDS011;33618;49.972;8.242;2023-07-31T14:12:05;3.55;;;2.45;;
47856;SDS011;33618;49.972;8.242;2023-07-31T14:14:32;6.30;;;2.60;;
47856;SDS011;33618;49.972;8.242;2023-07-31T14:17:00;5.10;;;2.30;;
47856;SDS011;33618;49.972;8.242;2023-07-31T14:19:28;4.78;;;2.33;;
47856;SDS011;33618;49.972;8.242;2023-07-31T14:21:57;2.53;;;2.08;;
47856;SDS011;33618;49.972;8.242;2023-07-31T14:24:36;3.15;;;2.28;;
47856;SDS011;33618;49.972;8.242;2023-07-31T14:27:04;2.97;;;2.08;;
47856;SDS011;33618;49.972;8.242;2023-07-31T14:29:31;4.88;;;2.30;;
47856;SDS011;33618;49.972;8.242;2023-07-31T14:31:58;6.43;;;2.25;;
47856;SDS011;33618;49.972;8.242;2023-07-31T14:34:26;2.67;;;1.90;;
47856;SDS011;33618;49.972;8.242;2023-07-31T14:36:53;2.47;;;1.80;;
47856;SDS011;33618;49.972;8.242;2023-07-31T14:39:20;4.03;;;2.00;;
47856;SDS011;33618;49.972;8.242;2023-07-31T14:41:47;3.45;;;1.80;;
47856;SDS011;33618;49.972;8.242;2023-07-31T14:44:14;3.83;;;1.80;;
47856;SDS011;33618;49.972;8.242;2023-07-31T14:46:42;3.35;;;1.80;;
47856;SDS011;33618;49.972;8.242;2023-07-31T14:49:09;2.60;;;1.70;;
47856;SDS011;33618;49.972;8.242;2023-07-31T14:51:36;4.82;;;2.40;;
47856;SDS011;33618;49.972;8.242;2023-07-31T14:54:03;4.22;;;1.70;;
47856;SDS011;33618;49.972;8.242;2023-07-31T14:56:30;2.60;;;1.80;;
47856;SDS011;33618;49.972;8.242;2023-07-31T14:58:57;1.50;;;1.40;;
47856;SDS011;33618;49.972;8.242;2023-07-31T15:01:24;1.88;;;1.58;;
47856;SDS011;33618;49.972;8.242;2023-07-31T15:03:51;2.05;;;1.60;;
47856;SDS011;33618;49.972;8.242;2023-07-31T15:06:18;1.60;;;1.50;;
47856;SDS011;33618;49.972;8.242;2023-07-31T15:08:45;1.52;;;1.42;;
47856;SDS011;33618;49.972;8.242;2023-07-31T15:11:11;3.83;;;1.50;;
47856;SDS011;33618;49.972;8.242;2023-07-31T15:13:39;2.75;;;1.38;;
47856;SDS011;33618;49.972;8.242;2023-07-31T15:16:06;2.85;;;1.38;;
47856;SDS011;33618;49.972;8.242;2023-07-31T15:18:33;2.88;;;1.40;;
47856;SDS011;33618;49.972;8.242;2023-07-31T15:21:00;1.52;;;1.40;;
47856;SDS011;33618;49.972;8.242;2023-07-31T15:23:27;2.55;;;1.58;;
47856;SDS011;33618;49.972;8.242;2023-07-31T15:25:53;4.93;;;1.52;;
47856;SDS011;33618;49.972;8.242;2023-07-31T15:28:20;1.75;;;1.30;;
47856;SDS011;33618;49.972;8.242;2023-07-31T15:30:48;3.33;;;1.60;;
47856;SDS011;33618;49.972;8.242;2023-07-31T15:33:15;1.42;;;1.33;;
47856;SDS011;33618;49.972;8.242;2023-07-31T15:35:42;4.50;;;1.73;;
47856;SDS011;33618;49.972;8.242;2023-07-31T15:38:09;1.40;;;1.30;;
47856;SDS011;33618;49.972;8.242;2023-07-31T15:40:38;2.05;;;1.48;;
47856;SDS011;33618;49.972;8.242;2023-07-31T15:43:05;2.58;;;1.40;;
47856;SDS011;33618;49.972;8.242;2023-07-31T15:45:32;2.15;;;1.58;;
47856;SDS011;33618;49.972;8.242;2023-07-31T15:47:59;1.42;;;1.33;;
47856;SDS011;33618;49.972;8.242;2023-07-31T15:50:25;1.67;;;1.52;;
47856;SDS011;33618;49.972;8.242;2023-07-31T15:52:52;3.85;;;1.58;;
47856;SDS011;33618;49.972;8.242;2023-07-31T15:55:19;1.70;;;1.60;;
47856;SDS011;33618;49.972;8.242;2023-07-31T15:57:47;1.67;;;1.58;;
47856;SDS011;33618;49.972;8.242;2023-07-31T16:00:14;3.78;;;1.52;;
47856;SDS011;33618;49.972;8.242;2023-07-31T16:02:43;1.77;;;1.63;;
47856;SDS011;33618;49.972;8.242;2023-07-31T16:05:13;2.63;;;1.73;;
47856;SDS011;33618;49.972;8.242;2023-07-31T16:07:39;2.10;;;1.52;;